sensor_id;sensor_type;location;lat;lon;timestamp;temperature;humidity
11963;DHT22;62678;52.130;5.584;2023-03-01T00:01:09;-0.60;99.90
11963;DHT22;62678;52.130;5.584;2023-03-01T00:03:37;-0.60;99.90
11963;DHT22;62678;52.130;5.584;2023-03-01T00:06:06;-0.60;99.90
11963;DHT22;62678;52.130;5.584;2023-03-01T00:08:33;-0.70;99.90
11963;DHT22;62678;52.130;5.584;2023-03-01T00:11:01;-0.70;99.90
11963;DHT22;62678;52.130;5.584;2023-03-01T00:13:28;-0.80;99.90
11963;DHT22;62678;52.130;5.584;2023-03-01T00:15:55;-0.70;99.90
11963;DHT22;62678;52.130;5.584;2023-03-01T00:18:22;-0.80;99.90
11963;DHT22;62678;52.130;5.584;2023-03-01T00:20:52;-0.80;99.90
11963;DHT22;62678;52.130;5.584;2023-03-01T00:23:22;-0.80;99.90
11963;DHT22;62678;52.130;5.584;2023-03-01T00:25:49;-0.80;99.90
11963;DHT22;62678;52.130;5.584;2023-03-01T00:28:17;-0.90;99.90
11963;DHT22;62678;52.130;5.584;2023-03-01T00:30:44;-0.90;99.90
11963;DHT22;62678;52.130;5.584;2023-03-01T00:33:11;-0.90;99.90
11963;DHT22;62678;52.130;5.584;2023-03-01T00:35:38;-0.90;99.90
11963;DHT22;62678;52.130;5.584;2023-03-01T00:38:05;-0.90;99.90
11963;DHT22;62678;52.130;5.584;2023-03-01T00:40:34;-0.80;99.90
11963;DHT22;62678;52.130;5.584;2023-03-01T00:43:02;-0.80;99.90
11963;DHT22;62678;52.130;5.584;2023-03-01T00:45:29;-0.80;99.90
11963;DHT22;62678;52.130;5.584;2023-03-01T00:47:56;-0.80;99.90
11963;DHT22;62678;52.130;5.584;2023-03-01T00:50:24;-0.80;99.90
11963;DHT22;62678;52.130;5.584;2023-03-01T00:52:52;-0.80;99.90
11963;DHT22;62678;52.130;5.584;2023-03-01T00:55:20;-0.80;99.90
11963;DHT22;62678;52.130;5.584;2023-03-01T00:57:48;-0.90;99.90
11963;DHT22;62678;52.130;5.584;2023-03-01T01:00:15;-0.90;99.90
11963;DHT22;62678;52.130;5.584;2023-03-01T01:02:42;-1.00;99.90
11963;DHT22;62678;52.130;5.584;2023-03-01T01:05:09;-1.00;99.90
11963;DHT22;62678;52.130;5.584;2023-03-01T01:07:37;-1.00;99.90
11963;DHT22;62678;52.130;5.584;2023-03-01T01:10:04;-1.00;99.90
11963;DHT22;62678;52.130;5.584;2023-03-01T01:12:31;-1.00;99.90
11963;DHT22;62678;52.130;5.584;2023-03-01T01:15:00;-1.00;99.90
11963;DHT22;62678;52.130;5.584;2023-03-01T01:17:26;-1.10;99.90
11963;DHT22;62678;52.130;5.584;2023-03-01T01:19:53;-1.10;99.90
11963;DHT22;62678;52.130;5.584;2023-03-01T01:22:20;-1.20;99.90
11963;DHT22;62678;52.130;5.584;2023-03-01T01:24:47;-1.20;99.90
11963;DHT22;62678;52.130;5.584;2023-03-01T01:27:14;-1.20;99.90
11963;DHT22;62678;52.130;5.584;2023-03-01T01:29:40;-1.20;99.90
11963;DHT22;62678;52.130;5.584;2023-03-01T01:32:09;-1.20;99.90
11963;DHT22;62678;52.130;5.584;2023-03-01T01:34:36;-1.20;99.90
11963;DHT22;62678;52.130;5.584;2023-03-01T01:37:03;-1.30;99.90
11963;DHT22;62678;52.130;5.584;2023-03-01T01:39:33;-1.30;99.90
11963;DHT22;62678;52.130;5.584;2023-03-01T01:42:02;-1.30;99.90
11963;DHT22;62678;52.130;5.584;2023-03-01T01:44:30;-1.30;99.90
11963;DHT22;62678;52.130;5.584;2023-03-01T01:47:02;-1.30;99.90
11963;DHT22;62678;52.130;5.584;2023-03-01T01:49:36;-1.40;99.90
11963;DHT22;62678;52.130;5.584;2023-03-01T01:52:09;-1.40;99.90
11963;DHT22;62678;52.130;5.584;2023-03-01T01:54:40;-1.40;99.90
11963;DHT22;62678;52.130;5.584;2023-03-01T01:57:13;-1.50;99.90
11963;DHT22;62678;52.130;5.584;2023-03-01T01:59:45;-1.50;99.90
11963;DHT22;62678;52.130;5.584;2023-03-01T02:02:13;-1.50;99.90
11963;DHT22;62678;52.130;5.584;2023-03-01T02:04:42;-1.50;99.90
11963;DHT22;62678;52.130;5.584;2023-03-01T02:07:14;-1.50;99.90
11963;DHT22;62678;52.130;5.584;2023-03-01T02:09:45;-1.50;99.90
11963;DHT22;62678;52.130;5.584;2023-03-01T02:12:14;-1.50;99.90
11963;DHT22;62678;52.130;5.584;2023-03-01T02:14:41;-1.50;99.90
11963;DHT22;62678;52.130;5.584;2023-03-01T02:17:07;-1.50;99.90
11963;DHT22;62678;52.130;5.584;2023-03-01T02:19:47;-1.60;99.90
11963;DHT22;62678;52.130;5.584;2023-03-01T02:22:22;-1.50;99.90
11963;DHT22;62678;52.130;5.584;2023-03-01T02:25:00;-1.50;99.90
11963;DHT22;62678;52.130;5.584;2023-03-01T02:27:38;-1.50;99.90
11963;DHT22;62678;52.130;5.584;2023-03-01T02:30:10;-1.50;99.90
11963;DHT22;62678;52.130;5.584;2023-03-01T02:32:38;-1.60;99.90
11963;DHT22;62678;52.130;5.584;2023-03-01T02:35:09;-1.60;99.90
11963;DHT22;62678;52.130;5.584;2023-03-01T02:37:37;-1.60;99.90
11963;DHT22;62678;52.130;5.584;2023-03-01T02:40:10;-1.60;99.90
11963;DHT22;62678;52.130;5.584;2023-03-01T02:42:45;-1.60;99.90
11963;DHT22;62678;52.130;5.584;2023-03-01T02:45:14;-1.70;99.90
11963;DHT22;62678;52.130;5.584;2023-03-01T02:47:41;-1.70;99.90
11963;DHT22;62678;52.130;5.584;2023-03-01T02:50:21;-1.70;99.90
11963;DHT22;62678;52.130;5.584;2023-03-01T02:52:56;-1.60;99.90
11963;DHT22;62678;52.130;5.584;2023-03-01T02:55:26;-1.70;99.90
11963;DHT22;62678;52.130;5.584;2023-03-01T02:57:55;-1.80;99.90
11963;DHT22;62678;52.130;5.584;2023-03-01T03:00:27;-1.80;99.90
11963;DHT22;62678;52.130;5.584;2023-03-01T03:02:55;-1.80;99.90
11963;DHT22;62678;52.130;5.584;2023-03-01T03:05:24;-1.80;99.90
11963;DHT22;62678;52.130;5.584;2023-03-01T03:07:52;-1.80;99.90
11963;DHT22;62678;52.130;5.584;2023-03-01T03:10:22;-1.80;99.90
11963;DHT22;62678;52.130;5.584;2023-03-01T03:12:49;-1.90;99.90
11963;DHT22;62678;52.130;5.584;2023-03-01T03:15:17;-1.90;99.90
11963;DHT22;62678;52.130;5.584;2023-03-01T03:17:45;-1.90;99.90
11963;DHT22;62678;52.130;5.584;2023-03-01T03:20:15;-1.90;99.90
11963;DHT22;62678;52.130;5.584;2023-03-01T03:22:44;-2.00;99.90
11963;DHT22;62678;52.130;5.584;2023-03-01T03:25:11;-2.00;99.90
11963;DHT22;62678;52.130;5.584;2023-03-01T03:27:39;-2.00;99.90
11963;DHT22;62678;52.130;5.584;2023-03-01T03:30:08;-1.90;99.90
11963;DHT22;62678;52.130;5.584;2023-03-01T03:32:38;-1.90;99.90
11963;DHT22;62678;52.130;5.584;2023-03-01T03:35:08;-1.90;99.90
11963;DHT22;62678;52.130;5.584;2023-03-01T03:37:36;-1.90;99.90
11963;DHT22;62678;52.130;5.584;2023-03-01T03:40:21;-1.90;99.90
11963;DHT22;62678;52.130;5.584;2023-03-01T03:42:47;-1.90;99.90
11963;DHT22;62678;52.130;5.584;2023-03-01T03:45:15;-1.90;99.90
11963;DHT22;62678;52.130;5.584;2023-03-01T03:47:42;-1.90;99.90
11963;DHT22;62678;52.130;5.584;2023-03-01T03:50:12;-1.90;99.90
11963;DHT22;62678;52.130;5.584;2023-03-01T03:52:39;-2.00;99.90
11963;DHT22;62678;52.130;5.584;2023-03-01T03:55:08;-2.00;99.90
11963;DHT22;62678;52.130;5.584;2023-03-01T03:57:36;-2.00;99.90
11963;DHT22;62678;52.130;5.584;2023-03-01T04:00:03;-2.00;99.90
11963;DHT22;62678;52.130;5.584;2023-03-01T04:02:31;-2.00;99.90
11963;DHT22;62678;52.130;5.584;2023-03-01T04:04:58;-2.10;99.90
11963;DHT22;62678;52.130;5.584;2023-03-01T04:07:26;-2.10;99.90
11963;DHT22;62678;52.130;5.584;2023-03-01T04:09:53;-2.10;99.90
11963;DHT22;62678;52.130;5.584;2023-03-01T04:12:20;-2.20;99.90
11963;DHT22;62678;52.130;5.584;2023-03-01T04:14:48;-2.20;99.90
11963;DHT22;62678;52.130;5.584;2023-03-01T04:17:15;-2.20;99.90
11963;DHT22;62678;52.130;5.584;2023-03-01T04:19:42;-2.20;99.90
11963;DHT22;62678;52.130;5.584;2023-03-01T04:22:09;-2.20;99.90
11963;DHT22;62678;52.130;5.584;2023-03-01T04:24:38;-2.20;99.90
11963;DHT22;62678;52.130;5.584;2023-03-01T04:27:05;-2.30;99.90
11963;DHT22;62678;52.130;5.584;2023-03-01T04:29:31;-2.30;99.90
11963;DHT22;62678;52.130;5.584;2023-03-01T04:31:58;-2.30;99.90
11963;DHT22;62678;52.130;5.584;2023-03-01T04:34:25;-2.30;99.90
11963;DHT22;62678;52.130;5.584;2023-03-01T04:36:52;-2.30;99.90
11963;DHT22;62678;52.130;5.584;2023-03-01T04:39:19;-2.30;99.90
11963;DHT22;62678;52.130;5.584;2023-03-01T04:41:48;-2.40;99.90
11963;DHT22;62678;52.130;5.584;2023-03-01T04:44:14;-2.30;99.90
11963;DHT22;62678;52.130;5.584;2023-03-01T04:46:41;-2.40;99.90
11963;DHT22;62678;52.130;5.584;2023-03-01T04:49:08;-2.40;99.90
11963;DHT22;62678;52.130;5.584;2023-03-01T04:51:35;-2.40;99.90
11963;DHT22;62678;52.130;5.584;2023-03-01T04:54:02;-2.40;99.90
11963;DHT22;62678;52.130;5.584;2023-03-01T04:56:30;-2.40;99.90
11963;DHT22;62678;52.130;5.584;2023-03-01T04:58:58;-2.30;99.90
11963;DHT22;62678;52.130;5.584;2023-03-01T05:01:26;-2.30;99.90
11963;DHT22;62678;52.130;5.584;2023-03-01T05:03:53;-2.30;99.90
11963;DHT22;62678;52.130;5.584;2023-03-01T05:06:20;-2.30;99.90
11963;DHT22;62678;52.130;5.584;2023-03-01T05:08:47;-2.20;99.90
11963;DHT22;62678;52.130;5.584;2023-03-01T05:11:14;-2.20;99.90
11963;DHT22;62678;52.130;5.584;2023-03-01T05:13:41;-2.20;99.90
11963;DHT22;62678;52.130;5.584;2023-03-01T05:16:10;-2.30;99.90
11963;DHT22;62678;52.130;5.584;2023-03-01T05:18:38;-2.30;99.90
11963;DHT22;62678;52.130;5.584;2023-03-01T05:21:07;-2.40;99.90
11963;DHT22;62678;52.130;5.584;2023-03-01T05:23:34;-2.40;99.90
11963;DHT22;62678;52.130;5.584;2023-03-01T05:26:02;-2.40;99.90
11963;DHT22;62678;52.130;5.584;2023-03-01T05:28:30;-2.40;99.90
11963;DHT22;62678;52.130;5.584;2023-03-01T05:30:57;-2.30;99.90
11963;DHT22;62678;52.130;5.584;2023-03-01T05:33:26;-2.40;99.90
11963;DHT22;62678;52.130;5.584;2023-03-01T05:35:54;-2.40;99.90
11963;DHT22;62678;52.130;5.584;2023-03-01T05:38:21;-2.40;99.90
11963;DHT22;62678;52.130;5.584;2023-03-01T05:40:48;-2.50;99.90
11963;DHT22;62678;52.130;5.584;2023-03-01T05:43:16;-2.40;99.90
11963;DHT22;62678;52.130;5.584;2023-03-01T05:45:44;-2.40;99.90
11963;DHT22;62678;52.130;5.584;2023-03-01T05:48:11;-2.40;99.90
11963;DHT22;62678;52.130;5.584;2023-03-01T05:50:41;-2.50;99.90
11963;DHT22;62678;52.130;5.584;2023-03-01T05:53:11;-2.50;99.90
11963;DHT22;62678;52.130;5.584;2023-03-01T05:55:38;-2.50;99.90
11963;DHT22;62678;52.130;5.584;2023-03-01T05:58:07;-2.60;99.90
11963;DHT22;62678;52.130;5.584;2023-03-01T06:00:36;-2.50;99.90
11963;DHT22;62678;52.130;5.584;2023-03-01T06:03:03;-2.60;99.90
11963;DHT22;62678;52.130;5.584;2023-03-01T06:05:30;-2.60;99.90
11963;DHT22;62678;52.130;5.584;2023-03-01T06:08:00;-2.60;99.90
11963;DHT22;62678;52.130;5.584;2023-03-01T06:10:28;-2.50;99.90
11963;DHT22;62678;52.130;5.584;2023-03-01T06:12:55;-2.50;99.90
11963;DHT22;62678;52.130;5.584;2023-03-01T06:15:22;-2.50;99.90
11963;DHT22;62678;52.130;5.584;2023-03-01T06:17:49;-2.50;99.90
11963;DHT22;62678;52.130;5.584;2023-03-01T06:20:18;-2.50;99.90
11963;DHT22;62678;52.130;5.584;2023-03-01T06:22:46;-2.50;99.90
11963;DHT22;62678;52.130;5.584;2023-03-01T06:25:17;-2.50;99.90
11963;DHT22;62678;52.130;5.584;2023-03-01T06:27:45;-2.50;99.90
11963;DHT22;62678;52.130;5.584;2023-03-01T06:30:14;-2.50;99.90
11963;DHT22;62678;52.130;5.584;2023-03-01T06:32:41;-2.50;99.90
11963;DHT22;62678;52.130;5.584;2023-03-01T06:35:09;-2.50;99.90
11963;DHT22;62678;52.130;5.584;2023-03-01T06:37:36;-2.40;99.90
11963;DHT22;62678;52.130;5.584;2023-03-01T06:40:04;-2.40;99.90
11963;DHT22;62678;52.130;5.584;2023-03-01T06:42:35;-2.40;99.90
11963;DHT22;62678;52.130;5.584;2023-03-01T06:45:02;-2.40;99.90
11963;DHT22;62678;52.130;5.584;2023-03-01T06:47:29;-2.40;99.90
11963;DHT22;62678;52.130;5.584;2023-03-01T06:49:56;-2.30;99.90
11963;DHT22;62678;52.130;5.584;2023-03-01T06:52:22;-2.30;99.90
11963;DHT22;62678;52.130;5.584;2023-03-01T06:54:49;-2.30;99.90
11963;DHT22;62678;52.130;5.584;2023-03-01T06:57:16;-2.30;99.90
11963;DHT22;62678;52.130;5.584;2023-03-01T06:59:44;-2.20;99.90
11963;DHT22;62678;52.130;5.584;2023-03-01T07:02:13;-2.20;99.90
11963;DHT22;62678;52.130;5.584;2023-03-01T07:04:41;-2.20;99.90
11963;DHT22;62678;52.130;5.584;2023-03-01T07:07:08;-2.10;99.90
11963;DHT22;62678;52.130;5.584;2023-03-01T07:09:35;-2.00;99.90
11963;DHT22;62678;52.130;5.584;2023-03-01T07:12:02;-1.90;99.90
11963;DHT22;62678;52.130;5.584;2023-03-01T07:14:29;-1.80;99.90
11963;DHT22;62678;52.130;5.584;2023-03-01T07:16:57;-1.80;99.90
11963;DHT22;62678;52.130;5.584;2023-03-01T07:19:24;-1.60;99.90
11963;DHT22;62678;52.130;5.584;2023-03-01T07:21:51;-1.60;99.90
11963;DHT22;62678;52.130;5.584;2023-03-01T07:24:18;-1.50;99.90
11963;DHT22;62678;52.130;5.584;2023-03-01T07:26:48;-1.40;99.90
11963;DHT22;62678;52.130;5.584;2023-03-01T07:29:15;-1.40;99.90
11963;DHT22;62678;52.130;5.584;2023-03-01T07:31:42;-1.30;99.90
11963;DHT22;62678;52.130;5.584;2023-03-01T07:34:10;-1.30;99.90
11963;DHT22;62678;52.130;5.584;2023-03-01T07:36:37;-1.30;99.90
11963;DHT22;62678;52.130;5.584;2023-03-01T07:39:05;-1.20;99.90
11963;DHT22;62678;52.130;5.584;2023-03-01T07:41:32;-1.20;99.90
11963;DHT22;62678;52.130;5.584;2023-03-01T07:43:58;-1.10;99.90
11963;DHT22;62678;52.130;5.584;2023-03-01T07:46:25;-1.00;99.90
11963;DHT22;62678;52.130;5.584;2023-03-01T07:48:52;-1.00;99.90
11963;DHT22;62678;52.130;5.584;2023-03-01T07:51:20;-0.90;99.90
11963;DHT22;62678;52.130;5.584;2023-03-01T07:53:47;-0.90;99.90
11963;DHT22;62678;52.130;5.584;2023-03-01T07:56:15;-0.80;99.90
11963;DHT22;62678;52.130;5.584;2023-03-01T07:58:44;-0.70;99.90
11963;DHT22;62678;52.130;5.584;2023-03-01T08:01:13;-0.70;99.90
11963;DHT22;62678;52.130;5.584;2023-03-01T08:03:40;-0.60;99.90
11963;DHT22;62678;52.130;5.584;2023-03-01T08:06:08;-0.50;99.90
11963;DHT22;62678;52.130;5.584;2023-03-01T08:08:37;-0.40;99.90
11963;DHT22;62678;52.130;5.584;2023-03-01T08:11:06;-0.20;99.90
11963;DHT22;62678;52.130;5.584;2023-03-01T08:13:33;-0.10;99.90
11963;DHT22;62678;52.130;5.584;2023-03-01T08:16:01;0.00;99.90
11963;DHT22;62678;52.130;5.584;2023-03-01T08:18:29;0.10;99.90
11963;DHT22;62678;52.130;5.584;2023-03-01T08:21:00;0.20;99.90
11963;DHT22;62678;52.130;5.584;2023-03-01T08:23:27;0.30;99.90
11963;DHT22;62678;52.130;5.584;2023-03-01T08:26:03;0.50;99.90
11963;DHT22;62678;52.130;5.584;2023-03-01T08:28:30;0.60;99.90
11963;DHT22;62678;52.130;5.584;2023-03-01T08:30:57;0.70;99.90
11963;DHT22;62678;52.130;5.584;2023-03-01T08:33:24;0.90;99.90
11963;DHT22;62678;52.130;5.584;2023-03-01T08:35:51;1.00;99.90
11963;DHT22;62678;52.130;5.584;2023-03-01T08:38:17;1.10;99.90
11963;DHT22;62678;52.130;5.584;2023-03-01T08:40:44;1.20;99.90
11963;DHT22;62678;52.130;5.584;2023-03-01T08:43:12;1.20;99.90
11963;DHT22;62678;52.130;5.584;2023-03-01T08:45:39;1.40;99.90
11963;DHT22;62678;52.130;5.584;2023-03-01T08:48:06;1.40;99.90
11963;DHT22;62678;52.130;5.584;2023-03-01T08:50:33;1.50;99.90
11963;DHT22;62678;52.130;5.584;2023-03-01T08:53:00;1.60;99.90
11963;DHT22;62678;52.130;5.584;2023-03-01T08:55:27;1.70;99.90
11963;DHT22;62678;52.130;5.584;2023-03-01T08:57:53;1.80;99.90
11963;DHT22;62678;52.130;5.584;2023-03-01T09:00:25;1.90;99.90
11963;DHT22;62678;52.130;5.584;2023-03-01T09:02:53;2.00;99.90
11963;DHT22;62678;52.130;5.584;2023-03-01T09:05:23;2.10;99.90
11963;DHT22;62678;52.130;5.584;2023-03-01T09:07:50;2.20;99.90
11963;DHT22;62678;52.130;5.584;2023-03-01T09:10:17;2.30;99.90
11963;DHT22;62678;52.130;5.584;2023-03-01T09:12:44;2.30;99.90
11963;DHT22;62678;52.130;5.584;2023-03-01T09:15:11;2.50;99.90
11963;DHT22;62678;52.130;5.584;2023-03-01T09:17:39;2.50;99.90
11963;DHT22;62678;52.130;5.584;2023-03-01T09:20:06;2.70;99.90
11963;DHT22;62678;52.130;5.584;2023-03-01T09:22:33;2.90;99.90
11963;DHT22;62678;52.130;5.584;2023-03-01T09:25:00;3.00;99.90
11963;DHT22;62678;52.130;5.584;2023-03-01T09:27:27;3.10;99.90
11963;DHT22;62678;52.130;5.584;2023-03-01T09:29:54;3.20;99.90
11963;DHT22;62678;52.130;5.584;2023-03-01T09:32:21;3.30;99.90
11963;DHT22;62678;52.130;5.584;2023-03-01T09:34:49;3.50;99.90
11963;DHT22;62678;52.130;5.584;2023-03-01T09:37:30;3.50;99.90
11963;DHT22;62678;52.130;5.584;2023-03-01T09:39:58;3.60;99.90
11963;DHT22;62678;52.130;5.584;2023-03-01T09:42:25;3.70;99.90
11963;DHT22;62678;52.130;5.584;2023-03-01T09:44:55;3.80;99.90
11963;DHT22;62678;52.130;5.584;2023-03-01T09:47:26;3.80;99.90
11963;DHT22;62678;52.130;5.584;2023-03-01T09:50:00;4.00;99.90
11963;DHT22;62678;52.130;5.584;2023-03-01T09:52:33;4.00;99.90
11963;DHT22;62678;52.130;5.584;2023-03-01T09:55:01;4.00;99.90
11963;DHT22;62678;52.130;5.584;2023-03-01T09:57:41;4.20;99.90
11963;DHT22;62678;52.130;5.584;2023-03-01T10:00:19;4.30;99.90
11963;DHT22;62678;52.130;5.584;2023-03-01T10:02:51;4.40;99.90
11963;DHT22;62678;52.130;5.584;2023-03-01T10:05:34;4.50;99.90
11963;DHT22;62678;52.130;5.584;2023-03-01T10:08:27;4.40;99.90
11963;DHT22;62678;52.130;5.584;2023-03-01T10:10:56;4.50;99.90
11963;DHT22;62678;52.130;5.584;2023-03-01T10:13:27;4.60;99.90
11963;DHT22;62678;52.130;5.584;2023-03-01T10:15:57;4.70;99.90
11963;DHT22;62678;52.130;5.584;2023-03-01T10:18:29;4.80;99.90
11963;DHT22;62678;52.130;5.584;2023-03-01T10:21:01;4.80;99.90
11963;DHT22;62678;52.130;5.584;2023-03-01T10:23:31;4.80;99.90
11963;DHT22;62678;52.130;5.584;2023-03-01T10:26:17;4.80;99.90
11963;DHT22;62678;52.130;5.584;2023-03-01T10:28:53;5.00;99.90
11963;DHT22;62678;52.130;5.584;2023-03-01T10:31:26;5.10;99.90
11963;DHT22;62678;52.130;5.584;2023-03-01T10:33:55;5.10;99.90
11963;DHT22;62678;52.130;5.584;2023-03-01T10:36:24;5.00;99.90
11963;DHT22;62678;52.130;5.584;2023-03-01T10:38:53;5.10;99.90
11963;DHT22;62678;52.130;5.584;2023-03-01T10:41:20;5.20;99.90
11963;DHT22;62678;52.130;5.584;2023-03-01T10:43:51;5.30;99.90
11963;DHT22;62678;52.130;5.584;2023-03-01T10:46:27;5.40;99.90
11963;DHT22;62678;52.130;5.584;2023-03-01T10:49:07;5.30;99.90
11963;DHT22;62678;52.130;5.584;2023-03-01T10:51:36;5.30;99.90
11963;DHT22;62678;52.130;5.584;2023-03-01T10:54:04;5.30;99.90
11963;DHT22;62678;52.130;5.584;2023-03-01T10:56:46;5.40;99.90
11963;DHT22;62678;52.130;5.584;2023-03-01T10:59:22;5.30;99.90
11963;DHT22;62678;52.130;5.584;2023-03-01T11:02:03;5.30;99.90
11963;DHT22;62678;52.130;5.584;2023-03-01T11:04:30;5.40;99.90
11963;DHT22;62678;52.130;5.584;2023-03-01T11:07:02;5.40;99.90
11963;DHT22;62678;52.130;5.584;2023-03-01T11:09:31;5.40;99.90
11963;DHT22;62678;52.130;5.584;2023-03-01T11:12:04;5.40;99.90
11963;DHT22;62678;52.130;5.584;2023-03-01T11:14:35;5.50;99.90
11963;DHT22;62678;52.130;5.584;2023-03-01T11:17:05;5.60;99.90
11963;DHT22;62678;52.130;5.584;2023-03-01T11:19:38;5.60;99.90
11963;DHT22;62678;52.130;5.584;2023-03-01T11:22:12;5.70;99.90
11963;DHT22;62678;52.130;5.584;2023-03-01T11:24:41;5.90;99.90
11963;DHT22;62678;52.130;5.584;2023-03-01T11:27:18;5.90;99.90
11963;DHT22;62678;52.130;5.584;2023-03-01T11:29:48;6.00;99.90
11963;DHT22;62678;52.130;5.584;2023-03-01T11:32:18;6.00;99.90
11963;DHT22;62678;52.130;5.584;2023-03-01T11:34:49;6.10;99.90
11963;DHT22;62678;52.130;5.584;2023-03-01T11:37:30;6.00;99.90
11963;DHT22;62678;52.130;5.584;2023-03-01T11:40:05;6.10;99.90
11963;DHT22;62678;52.130;5.584;2023-03-01T11:42:46;6.10;99.90
11963;DHT22;62678;52.130;5.584;2023-03-01T11:45:14;6.10;99.90
11963;DHT22;62678;52.130;5.584;2023-03-01T11:47:59;6.10;99.90
11963;DHT22;62678;52.130;5.584;2023-03-01T11:50:33;6.20;99.90
11963;DHT22;62678;52.130;5.584;2023-03-01T11:53:29;6.30;99.90
11963;DHT22;62678;52.130;5.584;2023-03-01T11:56:05;6.50;99.90
11963;DHT22;62678;52.130;5.584;2023-03-01T11:58:50;6.40;99.90
11963;DHT22;62678;52.130;5.584;2023-03-01T12:01:30;6.30;99.90
11963;DHT22;62678;52.130;5.584;2023-03-01T12:04:14;6.30;99.90
11963;DHT22;62678;52.130;5.584;2023-03-01T12:06:52;6.40;99.90
11963;DHT22;62678;52.130;5.584;2023-03-01T12:09:42;6.50;99.90
11963;DHT22;62678;52.130;5.584;2023-03-01T12:12:27;6.70;99.90
11963;DHT22;62678;52.130;5.584;2023-03-01T12:15:21;6.80;99.90
11963;DHT22;62678;52.130;5.584;2023-03-01T12:18:24;6.70;99.90
11963;DHT22;62678;52.130;5.584;2023-03-01T12:21:02;6.60;99.90
11963;DHT22;62678;52.130;5.584;2023-03-01T12:23:45;6.70;99.90
11963;DHT22;62678;52.130;5.584;2023-03-01T12:26:23;6.80;99.90
11963;DHT22;62678;52.130;5.584;2023-03-01T12:29:08;7.00;99.90
11963;DHT22;62678;52.130;5.584;2023-03-01T12:35:01;7.30;99.90
11963;DHT22;62678;52.130;5.584;2023-03-01T12:37:36;7.20;99.90
11963;DHT22;62678;52.130;5.584;2023-03-01T12:40:42;7.30;99.90
11963;DHT22;62678;52.130;5.584;2023-03-01T12:43:22;7.20;99.90
11963;DHT22;62678;52.130;5.584;2023-03-01T12:46:14;7.20;99.90
11963;DHT22;62678;52.130;5.584;2023-03-01T12:48:51;7.30;99.90
11963;DHT22;62678;52.130;5.584;2023-03-01T12:51:24;7.40;99.90
11963;DHT22;62678;52.130;5.584;2023-03-01T12:53:54;7.40;99.90
11963;DHT22;62678;52.130;5.584;2023-03-01T12:56:24;7.40;99.90
11963;DHT22;62678;52.130;5.584;2023-03-01T12:58:59;7.40;99.90
11963;DHT22;62678;52.130;5.584;2023-03-01T13:01:36;7.50;99.90
11963;DHT22;62678;52.130;5.584;2023-03-01T13:04:18;7.30;99.90
11963;DHT22;62678;52.130;5.584;2023-03-01T13:06:55;7.40;99.90
11963;DHT22;62678;52.130;5.584;2023-03-01T13:09:29;7.40;99.90
11963;DHT22;62678;52.130;5.584;2023-03-01T13:11:56;7.30;99.90
11963;DHT22;62678;52.130;5.584;2023-03-01T13:14:46;7.20;99.90
11963;DHT22;62678;52.130;5.584;2023-03-01T13:17:40;7.20;99.90
11963;DHT22;62678;52.130;5.584;2023-03-01T13:20:14;7.40;99.90
11963;DHT22;62678;52.130;5.584;2023-03-01T13:22:41;7.40;99.90
11963;DHT22;62678;52.130;5.584;2023-03-01T13:25:15;7.40;99.90
11963;DHT22;62678;52.130;5.584;2023-03-01T13:27:42;7.40;99.90
11963;DHT22;62678;52.130;5.584;2023-03-01T13:30:43;7.50;99.90
11963;DHT22;62678;52.130;5.584;2023-03-01T13:33:39;7.50;99.90
11963;DHT22;62678;52.130;5.584;2023-03-01T13:36:07;7.60;99.90
11963;DHT22;62678;52.130;5.584;2023-03-01T13:38:39;7.60;99.90
11963;DHT22;62678;52.130;5.584;2023-03-01T13:41:12;7.60;99.90
11963;DHT22;62678;52.130;5.584;2023-03-01T13:43:41;7.70;99.90
11963;DHT22;62678;52.130;5.584;2023-03-01T13:46:16;7.50;99.90
11963;DHT22;62678;52.130;5.584;2023-03-01T13:48:45;7.60;99.90
11963;DHT22;62678;52.130;5.584;2023-03-01T13:51:14;7.60;99.90
11963;DHT22;62678;52.130;5.584;2023-03-01T13:53:43;7.70;99.90
11963;DHT22;62678;52.130;5.584;2023-03-01T13:56:14;7.80;99.90
11963;DHT22;62678;52.130;5.584;2023-03-01T13:58:49;7.80;99.90
11963;DHT22;62678;52.130;5.584;2023-03-01T14:01:26;7.70;99.90
11963;DHT22;62678;52.130;5.584;2023-03-01T14:03:54;7.70;99.90
11963;DHT22;62678;52.130;5.584;2023-03-01T14:06:22;7.80;99.90
11963;DHT22;62678;52.130;5.584;2023-03-01T14:08:52;7.90;99.90
11963;DHT22;62678;52.130;5.584;2023-03-01T14:14:44;7.90;99.90
11963;DHT22;62678;52.130;5.584;2023-03-01T14:20:29;8.00;99.90
11963;DHT22;62678;52.130;5.584;2023-03-01T14:22:58;8.10;99.90
11963;DHT22;62678;52.130;5.584;2023-03-01T14:25:28;8.00;99.90
11963;DHT22;62678;52.130;5.584;2023-03-01T14:27:59;8.20;99.90
11963;DHT22;62678;52.130;5.584;2023-03-01T14:30:30;8.10;99.90
11963;DHT22;62678;52.130;5.584;2023-03-01T14:33:01;8.10;99.90
11963;DHT22;62678;52.130;5.584;2023-03-01T14:35:30;8.20;99.90
11963;DHT22;62678;52.130;5.584;2023-03-01T14:37:57;8.20;99.90
11963;DHT22;62678;52.130;5.584;2023-03-01T14:40:27;8.20;99.90
11963;DHT22;62678;52.130;5.584;2023-03-01T14:42:56;8.20;99.90
11963;DHT22;62678;52.130;5.584;2023-03-01T14:45:25;8.30;99.90
11963;DHT22;62678;52.130;5.584;2023-03-01T14:47:53;8.30;99.90
11963;DHT22;62678;52.130;5.584;2023-03-01T14:50:27;8.20;99.90
11963;DHT22;62678;52.130;5.584;2023-03-01T14:52:57;8.20;99.90
11963;DHT22;62678;52.130;5.584;2023-03-01T14:55:29;8.20;99.90
11963;DHT22;62678;52.130;5.584;2023-03-01T14:57:57;8.20;99.90
11963;DHT22;62678;52.130;5.584;2023-03-01T15:00:27;8.10;99.90
11963;DHT22;62678;52.130;5.584;2023-03-01T15:02:56;8.20;99.90
11963;DHT22;62678;52.130;5.584;2023-03-01T15:05:29;8.30;99.90
11963;DHT22;62678;52.130;5.584;2023-03-01T15:07:57;8.20;99.90
11963;DHT22;62678;52.130;5.584;2023-03-01T15:10:28;8.00;99.90
11963;DHT22;62678;52.130;5.584;2023-03-01T15:12:55;7.90;99.90
11963;DHT22;62678;52.130;5.584;2023-03-01T15:15:32;8.00;99.90
11963;DHT22;62678;52.130;5.584;2023-03-01T15:18:00;8.10;99.90
11963;DHT22;62678;52.130;5.584;2023-03-01T15:20:31;8.10;99.90
11963;DHT22;62678;52.130;5.584;2023-03-01T15:23:02;8.10;99.90
11963;DHT22;62678;52.130;5.584;2023-03-01T15:25:30;8.10;99.90
11963;DHT22;62678;52.130;5.584;2023-03-01T15:27:59;8.00;99.90
11963;DHT22;62678;52.130;5.584;2023-03-01T15:30:29;7.90;99.90
11963;DHT22;62678;52.130;5.584;2023-03-01T15:33:20;8.00;99.90
11963;DHT22;62678;52.130;5.584;2023-03-01T15:35:49;8.10;99.90
11963;DHT22;62678;52.130;5.584;2023-03-01T15:38:33;8.10;99.90
11963;DHT22;62678;52.130;5.584;2023-03-01T15:41:04;8.30;99.90
11963;DHT22;62678;52.130;5.584;2023-03-01T15:43:45;8.50;99.90
11963;DHT22;62678;52.130;5.584;2023-03-01T15:46:25;8.70;99.90
11963;DHT22;62678;52.130;5.584;2023-03-01T15:48:55;8.80;99.90
11963;DHT22;62678;52.130;5.584;2023-03-01T15:51:30;9.00;99.90
11963;DHT22;62678;52.130;5.584;2023-03-01T15:53:59;9.20;99.90
11963;DHT22;62678;52.130;5.584;2023-03-01T15:56:27;9.20;99.90
11963;DHT22;62678;52.130;5.584;2023-03-01T15:58:57;9.40;99.90
11963;DHT22;62678;52.130;5.584;2023-03-01T16:01:25;9.20;99.90
11963;DHT22;62678;52.130;5.584;2023-03-01T16:03:53;9.20;99.90
11963;DHT22;62678;52.130;5.584;2023-03-01T16:06:20;9.30;99.90
11963;DHT22;62678;52.130;5.584;2023-03-01T16:08:48;9.00;99.90